createdAt,value
2018-03-25T00:01:04.026Z,9.67
2018-03-25T00:04:07.317Z,9.00
2018-03-25T00:07:10.607Z,10.27
2018-03-25T00:10:13.885Z,8.82
2018-03-25T00:13:17.968Z,8.83
2018-03-25T00:16:21.264Z,9.80
2018-03-25T00:19:24.554Z,9.40
2018-03-25T00:22:27.846Z,8.63
2018-03-25T00:25:31.168Z,9.67
2018-03-25T00:28:34.468Z,9.60
2018-03-25T00:31:37.753Z,7.90
2018-03-25T00:34:41.029Z,9.35
2018-03-25T00:37:44.321Z,9.83
2018-03-25T00:40:47.756Z,9.67
2018-03-25T00:43:51.128Z,9.93
2018-03-25T00:46:54.428Z,9.27
2018-03-25T00:49:58.198Z,8.37
2018-03-25T00:53:01.493Z,8.60
2018-03-25T00:56:05.652Z,8.23
2018-03-25T00:59:08.938Z,7.67
2018-03-25T01:02:13.041Z,8.83
2018-03-25T01:05:16.334Z,8.20
2018-03-25T01:08:19.662Z,8.13
2018-03-25T01:11:23.038Z,7.47
2018-03-25T01:14:26.318Z,7.90
2018-03-25T01:17:30.387Z,7.93
2018-03-25T01:20:33.666Z,8.00
2018-03-25T01:23:36.960Z,8.03
2018-03-25T01:26:40.358Z,9.37
2018-03-25T01:29:43.658Z,6.93
2018-03-25T01:32:46.947Z,7.80
2018-03-25T01:35:50.218Z,7.23
2018-03-25T01:38:53.753Z,7.13
2018-03-25T01:41:57.077Z,7.97
2018-03-25T01:45:00.370Z,8.25
2018-03-25T01:48:03.654Z,7.93
2018-03-25T01:51:06.936Z,9.10
2018-03-25T01:54:10.241Z,9.20
2018-03-25T01:57:13.520Z,7.70
2018-03-25T02:00:16.797Z,7.73
2018-03-25T02:03:20.113Z,7.63
2018-03-25T02:06:23.541Z,6.83
2018-03-25T02:09:27.318Z,9.17
2018-03-25T02:12:30.731Z,7.63
2018-03-25T02:15:34.015Z,8.57
2018-03-25T02:18:37.317Z,8.20
2018-03-25T02:21:40.594Z,8.10
2018-03-25T02:24:44.662Z,6.90
2018-03-25T02:27:48.776Z,8.67
2018-03-25T02:30:52.104Z,8.80
2018-03-25T02:33:55.391Z,7.93
2018-03-25T02:36:58.692Z,7.50
2018-03-25T02:40:01.970Z,7.27
2018-03-25T02:43:05.257Z,7.67
2018-03-25T02:46:08.556Z,6.73
2018-03-25T02:49:11.856Z,8.52
2018-03-25T02:52:15.150Z,7.77
2018-03-25T02:55:18.422Z,8.43
2018-03-25T02:58:21.743Z,7.00
2018-03-25T03:01:25.033Z,7.23
2018-03-25T03:04:28.349Z,7.23
2018-03-25T03:07:31.641Z,7.50
2018-03-25T03:10:35.135Z,8.10
2018-03-25T03:13:38.437Z,7.03
2018-03-25T03:16:41.807Z,7.33
2018-03-25T03:19:45.850Z,6.90
2018-03-25T03:22:49.154Z,6.87
2018-03-25T03:25:52.429Z,6.30
2018-03-25T03:28:55.727Z,6.23
2018-03-25T03:31:59.062Z,7.13
2018-03-25T03:35:02.361Z,6.35
2018-03-25T03:38:05.657Z,6.03
2018-03-25T03:41:08.957Z,6.93
2018-03-25T03:44:12.249Z,6.43
2018-03-25T03:47:15.532Z,8.43
2018-03-25T03:50:18.844Z,7.60
2018-03-25T03:53:22.134Z,7.97
2018-03-25T03:56:25.657Z,7.63
2018-03-25T03:59:29.569Z,7.53
2018-03-25T04:02:32.878Z,6.80
2018-03-25T04:05:36.165Z,6.80
2018-03-25T04:08:39.618Z,6.53
2018-03-25T04:11:42.926Z,8.03
2018-03-25T04:14:46.289Z,7.53
2018-03-25T04:17:50.377Z,7.43
2018-03-25T04:20:53.681Z,7.30
2018-03-25T04:23:56.986Z,6.70
2018-03-25T04:27:00.310Z,7.23
2018-03-25T04:30:03.999Z,6.47
2018-03-25T04:33:08.074Z,6.17
2018-03-25T04:36:11.427Z,7.07
2018-03-25T04:39:14.885Z,5.82
2018-03-25T04:42:18.328Z,5.63
2018-03-25T04:45:21.644Z,6.28
2018-03-25T04:48:24.994Z,6.60
2018-03-25T04:51:28.294Z,5.90
2018-03-25T04:54:31.582Z,6.65
2018-03-25T04:57:35.035Z,5.00
2018-03-25T05:00:38.605Z,4.90
2018-03-25T05:03:41.926Z,5.97
2018-03-25T05:06:45.240Z,6.03
2018-03-25T05:09:48.612Z,7.17
2018-03-25T05:12:52.684Z,5.87
2018-03-25T05:15:56.029Z,5.15
2018-03-25T05:18:59.313Z,5.87
2018-03-25T05:22:02.602Z,5.10
2018-03-25T05:25:05.918Z,7.12
2018-03-25T05:28:10.005Z,11.67
2018-03-25T05:31:13.327Z,9.10
2018-03-25T05:34:16.637Z,9.53
2018-03-25T05:37:20.728Z,8.63
2018-03-25T05:40:24.065Z,8.32
2018-03-25T05:43:27.689Z,8.73
2018-03-25T05:46:30.988Z,8.00
2018-03-25T05:49:34.285Z,7.13
2018-03-25T05:52:37.835Z,7.43
2018-03-25T05:55:41.125Z,6.30
2018-03-25T05:58:44.451Z,8.60
2018-03-25T06:01:48.493Z,5.80
2018-03-25T06:04:51.794Z,5.17
2018-03-25T06:07:55.243Z,5.20
2018-03-25T06:10:58.541Z,5.43
2018-03-25T06:14:01.838Z,5.17
2018-03-25T06:17:05.702Z,4.97
2018-03-25T06:20:09.197Z,6.30
2018-03-25T06:23:12.542Z,5.97
2018-03-25T06:26:15.853Z,7.17
2018-03-25T06:29:19.166Z,7.27
2018-03-25T06:32:47.237Z,5.37
2018-03-25T06:35:51.745Z,4.87
2018-03-25T06:38:56.628Z,5.80
2018-03-25T06:42:00.209Z,5.17
2018-03-25T06:45:04.404Z,4.55
2018-03-25T06:48:07.926Z,4.30
2018-03-25T06:51:11.256Z,4.80
2018-03-25T06:54:14.617Z,4.07
2018-03-25T06:57:17.872Z,4.67
2018-03-25T07:00:21.146Z,4.23
2018-03-25T07:03:25.646Z,4.03
2018-03-25T07:06:28.932Z,4.13
2018-03-25T07:09:32.242Z,3.80
2018-03-25T07:12:35.732Z,4.00
2018-03-25T07:15:39.093Z,4.10
2018-03-25T07:18:42.368Z,3.70
2018-03-25T07:21:45.815Z,3.47
2018-03-25T07:24:49.247Z,5.20
2018-03-25T07:27:53.265Z,4.50
2018-03-25T07:30:57.393Z,5.30
2018-03-25T07:34:00.947Z,4.68
2018-03-25T07:37:04.279Z,4.07
2018-03-25T07:40:07.582Z,4.20
2018-03-25T07:43:11.618Z,5.00
2018-03-25T07:46:15.084Z,4.50
2018-03-25T07:49:19.245Z,4.97
2018-03-25T07:52:22.550Z,5.07
2018-03-25T07:55:26.080Z,4.83
2018-03-25T07:58:29.488Z,4.30
2018-03-25T08:01:32.776Z,4.50
2018-03-25T08:04:36.049Z,3.50
2018-03-25T08:07:39.301Z,4.50
2018-03-25T08:10:42.586Z,3.60
2018-03-25T08:13:46.624Z,3.77
2018-03-25T08:16:49.936Z,3.80
2018-03-25T08:19:54.030Z,3.20
2018-03-25T08:22:57.296Z,3.83
2018-03-25T08:26:00.574Z,3.10
2018-03-25T08:29:04.023Z,3.60
2018-03-25T08:32:07.378Z,3.57
2018-03-25T08:35:10.738Z,3.50
2018-03-25T08:38:16.466Z,4.53
2018-03-25T08:41:20.053Z,3.67
2018-03-25T08:44:23.887Z,3.67
2018-03-25T08:47:29.104Z,4.13
2018-03-25T08:50:33.421Z,4.60
2018-03-25T08:53:37.148Z,4.17
2018-03-25T08:56:40.679Z,5.07
2018-03-25T08:59:46.166Z,5.23
2018-03-25T09:02:49.997Z,5.67
2018-03-25T09:05:53.453Z,6.00
2018-03-25T09:08:57.117Z,6.07
2018-03-25T09:12:00.809Z,5.67
2018-03-25T09:15:05.711Z,5.57
2018-03-25T09:18:11.200Z,5.20
2018-03-25T09:21:15.039Z,6.20
2018-03-25T09:24:18.834Z,6.13
2018-03-25T09:27:22.433Z,5.40
2018-03-25T09:30:26.188Z,5.83
2018-03-25T09:33:30.783Z,6.00
2018-03-25T09:36:34.525Z,6.27
2018-03-25T09:39:37.828Z,6.00
2018-03-25T09:42:41.385Z,6.70
2018-03-25T09:45:45.143Z,5.97
2018-03-25T09:48:48.629Z,6.13
2018-03-25T09:51:52.698Z,5.83
2018-03-25T09:54:55.973Z,5.97
2018-03-25T09:57:59.603Z,6.37
2018-03-25T10:01:08.730Z,7.17
2018-03-25T10:04:12.236Z,6.70
2018-03-25T10:07:16.615Z,6.40
2018-03-25T10:10:20.711Z,5.85
2018-03-25T10:13:25.166Z,5.83
2018-03-25T10:16:28.558Z,5.23
2018-03-25T10:19:31.836Z,5.37
2018-03-25T10:22:35.122Z,5.27
2018-03-25T10:25:38.401Z,6.23
2018-03-25T10:28:41.940Z,5.37
2018-03-25T10:31:45.269Z,6.17
2018-03-25T10:34:49.330Z,6.17
2018-03-25T10:37:52.612Z,5.67
2018-03-25T10:40:55.885Z,5.70
2018-03-25T10:43:59.217Z,6.10
2018-03-25T10:47:02.541Z,5.47
2018-03-25T10:50:06.427Z,5.60
2018-03-25T10:53:10.501Z,6.00
2018-03-25T10:56:13.794Z,4.87
2018-03-25T10:59:17.060Z,5.53
2018-03-25T11:02:20.338Z,5.77
2018-03-25T11:05:24.364Z,5.60
2018-03-25T11:08:27.645Z,4.97
2018-03-25T11:11:31.716Z,6.20
2018-03-25T11:14:35.991Z,5.03
2018-03-25T11:17:40.029Z,6.27
2018-03-25T11:20:43.310Z,5.85
2018-03-25T11:23:46.717Z,5.33
2018-03-25T11:26:50.086Z,5.23
2018-03-25T11:29:53.356Z,5.30
2018-03-25T11:32:56.682Z,5.87
2018-03-25T11:36:00.936Z,5.90
2018-03-25T11:39:04.234Z,5.77
2018-03-25T11:42:07.577Z,5.90
2018-03-25T11:45:10.864Z,5.67
2018-03-25T11:48:14.152Z,6.27
2018-03-25T11:51:17.946Z,6.53
2018-03-25T11:54:27.367Z,6.10
2018-03-25T11:57:33.116Z,6.10
2018-03-25T12:00:37.169Z,5.93
2018-03-25T12:03:40.468Z,6.25
2018-03-25T12:06:43.752Z,4.97
2018-03-25T12:09:47.052Z,5.53
2018-03-25T12:12:50.334Z,5.27
2018-03-25T12:15:53.608Z,6.47
2018-03-25T12:18:56.945Z,6.63
2018-03-25T12:22:00.961Z,6.17
2018-03-25T12:25:04.246Z,6.97
2018-03-25T12:28:08.539Z,7.13
2018-03-25T12:31:12.579Z,6.53
2018-03-25T12:34:15.854Z,6.40
2018-03-25T12:37:19.961Z,6.37
2018-03-25T12:40:24.215Z,6.03
2018-03-25T12:43:27.517Z,6.30
2018-03-25T12:46:30.793Z,4.77
2018-03-25T12:49:34.961Z,7.07
2018-03-25T12:52:38.252Z,5.90
2018-03-25T12:55:41.752Z,7.77
2018-03-25T12:58:45.251Z,7.63
2018-03-25T13:01:48.536Z,7.27
2018-03-25T13:04:51.826Z,7.77
2018-03-25T13:07:55.158Z,7.50
2018-03-25T13:10:58.471Z,7.17
2018-03-25T13:14:01.776Z,7.17
2018-03-25T13:17:05.058Z,7.10
2018-03-25T13:20:08.345Z,7.17
2018-03-25T13:23:11.631Z,7.10
2018-03-25T13:26:14.211Z,7.00
2018-03-25T13:29:17.579Z,5.83
2018-03-25T13:32:24.163Z,6.30
2018-03-25T13:35:27.615Z,7.43
2018-03-25T13:38:30.898Z,6.57
2018-03-25T13:41:34.222Z,6.60
2018-03-25T13:44:37.517Z,6.57
2018-03-25T13:47:41.534Z,6.20
2018-03-25T13:50:44.866Z,5.50
2018-03-25T13:53:48.175Z,5.50
2018-03-25T13:56:51.457Z,6.30
2018-03-25T13:59:54.751Z,5.97
2018-03-25T14:02:58.957Z,7.13
2018-03-25T14:06:03.027Z,6.63
2018-03-25T14:09:07.985Z,6.20
2018-03-25T14:12:11.281Z,6.77
2018-03-25T14:15:14.605Z,5.97
2018-03-25T14:18:17.828Z,5.87
2018-03-25T14:21:21.125Z,6.20
2018-03-25T14:24:24.409Z,7.33
2018-03-25T14:27:28.557Z,6.27
2018-03-25T14:30:32.103Z,5.90
2018-03-25T14:33:35.467Z,6.17
2018-03-25T14:36:38.761Z,6.93
2018-03-25T14:39:42.046Z,5.67
2018-03-25T14:42:45.357Z,6.33
2018-03-25T14:45:48.670Z,6.33
2018-03-25T14:48:51.987Z,6.03
2018-03-25T14:51:55.248Z,5.33
2018-03-25T14:54:58.595Z,5.50
2018-03-25T14:58:02.553Z,6.37
2018-03-25T15:01:05.928Z,6.50
2018-03-25T15:04:10.106Z,5.90
2018-03-25T15:07:13.381Z,5.93
2018-03-25T15:10:16.652Z,5.80
2018-03-25T15:13:19.973Z,5.93
2018-03-25T15:16:23.245Z,6.43
2018-03-25T15:19:27.370Z,11.80
2018-03-25T15:22:31.972Z,10.77
2018-03-25T15:25:36.016Z,8.20
2018-03-25T15:28:39.292Z,5.63
2018-03-25T15:31:42.554Z,5.87
2018-03-25T15:34:45.889Z,7.80
2018-03-25T15:37:49.936Z,8.03
2018-03-25T15:40:53.214Z,7.40
2018-03-25T15:43:56.498Z,7.47
2018-03-25T15:47:00.530Z,7.63
2018-03-25T15:50:04.324Z,6.50
2018-03-25T15:53:07.627Z,6.93
2018-03-25T15:56:11.286Z,7.63
2018-03-25T15:59:14.915Z,7.07
2018-03-25T16:02:19.185Z,7.37
2018-03-25T16:05:22.467Z,7.17
2018-03-25T16:08:25.768Z,6.80
2018-03-25T16:11:29.062Z,8.17
2018-03-25T16:14:32.343Z,7.97
2018-03-25T16:17:35.754Z,7.63
2018-03-25T16:20:39.080Z,8.17
2018-03-25T16:23:42.684Z,7.40
2018-03-25T16:26:45.965Z,7.13
2018-03-25T16:29:49.347Z,7.50
2018-03-25T16:32:53.424Z,7.40
2018-03-25T16:35:56.698Z,8.00
2018-03-25T16:38:59.993Z,7.23
2018-03-25T16:42:03.698Z,7.40
2018-03-25T16:45:08.933Z,7.43
2018-03-25T16:48:12.213Z,7.17
2018-03-25T16:51:15.508Z,7.83
2018-03-25T16:54:18.811Z,7.93
2018-03-25T16:57:22.077Z,8.33
2018-03-25T17:00:25.396Z,6.93
2018-03-25T17:03:28.727Z,6.73
2018-03-25T17:06:32.135Z,7.30
2018-03-25T17:09:35.517Z,7.50
2018-03-25T17:12:41.969Z,7.00
2018-03-25T17:15:48.756Z,7.37
2018-03-25T17:18:52.046Z,7.23
2018-03-25T17:21:55.378Z,7.73
2018-03-25T17:24:58.673Z,6.63
2018-03-25T17:28:01.979Z,6.23
2018-03-25T17:31:05.432Z,7.47
2018-03-25T17:34:09.485Z,10.47
2018-03-25T17:37:12.755Z,12.43
2018-03-25T17:40:16.057Z,11.33
2018-03-25T17:43:19.470Z,11.57
2018-03-25T17:46:22.866Z,11.03
2018-03-25T17:49:26.594Z,10.77
2018-03-25T17:52:29.962Z,10.37
2018-03-25T17:55:33.257Z,10.10
2018-03-25T17:58:37.494Z,12.37
2018-03-25T18:01:40.788Z,13.63
2018-03-25T18:04:44.073Z,14.40
2018-03-25T18:07:47.345Z,14.70
2018-03-25T18:10:51.395Z,13.30
2018-03-25T18:13:54.682Z,13.60
2018-03-25T18:16:58.088Z,12.23
2018-03-25T18:20:01.396Z,10.77
2018-03-25T18:23:04.680Z,7.07
2018-03-25T18:26:07.976Z,5.37
2018-03-25T18:29:12.040Z,4.17
2018-03-25T18:32:15.322Z,3.63
2018-03-25T18:35:18.590Z,4.00
2018-03-25T18:38:21.867Z,3.70
2018-03-25T18:41:25.905Z,3.33
2018-03-25T18:44:29.173Z,3.60
2018-03-25T18:47:33.521Z,4.10
2018-03-25T18:50:37.062Z,4.40
2018-03-25T18:53:40.360Z,5.07
2018-03-25T18:56:43.924Z,4.90
2018-03-25T18:59:47.504Z,4.73
2018-03-25T19:02:51.860Z,5.90
2018-03-25T19:05:55.469Z,5.80
2018-03-25T19:08:58.861Z,6.30
2018-03-25T19:12:02.134Z,6.73
2018-03-25T19:15:06.166Z,7.47
2018-03-25T19:18:10.212Z,6.60
2018-03-25T19:21:13.486Z,5.87
2018-03-25T19:24:16.788Z,6.43
2018-03-25T19:27:20.049Z,6.37
2018-03-25T19:30:24.097Z,6.03
2018-03-25T19:33:28.315Z,5.85
2018-03-25T19:36:31.585Z,5.90
2018-03-25T19:39:35.648Z,4.80
2018-03-25T19:42:38.992Z,5.23
2018-03-25T19:45:42.269Z,7.30
2018-03-25T19:48:45.544Z,7.70
2018-03-25T19:51:48.836Z,6.83
2018-03-25T19:54:52.136Z,8.57
2018-03-25T19:57:55.408Z,8.20
2018-03-25T20:00:59.424Z,7.27
2018-03-25T20:04:02.709Z,8.37
2018-03-25T20:07:06.745Z,7.43
2018-03-25T20:10:10.013Z,8.27
2018-03-25T20:13:13.313Z,7.90
2018-03-25T20:16:17.365Z,5.68
2018-03-25T20:19:20.712Z,5.53
2018-03-25T20:22:23.961Z,5.53
2018-03-25T20:25:27.248Z,6.23
2018-03-25T20:28:30.547Z,6.93
2018-03-25T20:31:33.813Z,6.00
2018-03-25T20:34:37.856Z,6.43
2018-03-25T20:37:41.125Z,6.60
2018-03-25T20:40:45.184Z,6.43
2018-03-25T20:43:48.502Z,6.12
2018-03-25T20:46:51.767Z,6.30
2018-03-25T20:49:55.037Z,6.33
2018-03-25T20:52:59.244Z,6.13
2018-03-25T20:56:02.565Z,5.37
2018-03-25T20:59:05.833Z,6.40
2018-03-25T21:02:10.219Z,5.10
2018-03-25T21:05:13.491Z,5.53
2018-03-25T21:08:16.980Z,5.67
2018-03-25T21:11:21.042Z,5.77
2018-03-25T21:14:24.314Z,6.00
2018-03-25T21:17:27.610Z,5.97
2018-03-25T21:20:30.990Z,6.30
2018-03-25T21:23:35.024Z,6.40
2018-03-25T21:26:38.301Z,6.37
2018-03-25T21:29:42.357Z,6.62
2018-03-25T21:32:45.622Z,6.67
2018-03-25T21:35:48.970Z,5.97
2018-03-25T21:38:52.449Z,4.85
2018-03-25T21:41:55.742Z,6.13
2018-03-25T21:44:59.656Z,7.33
2018-03-25T21:48:03.077Z,6.30
2018-03-25T21:51:06.514Z,6.00
2018-03-25T21:54:09.864Z,5.47
2018-03-25T21:57:15.224Z,8.23
2018-03-25T22:00:18.784Z,7.73
2018-03-25T22:03:24.258Z,8.10
2018-03-25T22:06:27.870Z,9.53
2018-03-25T22:09:31.146Z,7.93
2018-03-25T22:12:34.594Z,6.40
2018-03-25T22:15:38.029Z,5.73
2018-03-25T22:19:00.288Z,5.80
2018-03-25T22:22:03.696Z,5.07
2018-03-25T22:25:07.789Z,11.90
2018-03-25T22:28:11.828Z,10.27
2018-03-25T22:31:16.123Z,9.87
2018-03-25T22:34:20.169Z,8.37
2018-03-25T22:37:23.776Z,9.17
2018-03-25T22:40:27.082Z,7.30
2018-03-25T22:43:30.366Z,7.30
2018-03-25T22:46:33.775Z,6.47
2018-03-25T22:49:37.074Z,7.33
2018-03-25T22:52:40.368Z,6.00
2018-03-25T22:55:43.793Z,7.70
2018-03-25T22:58:47.263Z,6.83
2018-03-25T23:01:50.554Z,7.53
2018-03-25T23:04:56.251Z,5.23
2018-03-25T23:08:11.362Z,4.97
2018-03-25T23:11:14.852Z,7.03
2018-03-25T23:14:18.121Z,7.70
2018-03-25T23:17:21.401Z,5.27
2018-03-25T23:20:24.694Z,4.23
2018-03-25T23:23:28.193Z,9.83
2018-03-25T23:26:31.486Z,8.00
2018-03-25T23:29:35.535Z,6.10
2018-03-25T23:32:38.902Z,4.70
2018-03-25T23:35:42.194Z,8.43
2018-03-25T23:38:46.240Z,4.57
2018-03-25T23:41:49.520Z,3.77
2018-03-25T23:44:53.560Z,3.83
2018-03-25T23:47:56.836Z,7.03
2018-03-25T23:51:00.124Z,8.93
2018-03-25T23:54:04.165Z,9.33
2018-03-25T23:57:07.488Z,4.83
